Time;durP1;ratioP1;P1;durP2;ratioP2;P2;SDS_P1;SDS_P2;PMS_P1;PMS_P2;Temp;Humidity;BMP_temperature;BMP_pressure;BME280_temperature;BME280_humidity;BME280_pressure;Samples;Min_cycle;Max_cycle;Signal;HPM_P1;HPM_P2
2022/08/02 00:01:30;;;;;;;;;;;;;;;;;;4987233;28;19917;-41
2022/08/02 00:03:56;;;;;;;;;;;;;;;;;;4999512;28;20007;-41
2022/08/02 00:06:21;;;;;;;;;;;;;;;;;;5009591;28;19909;-41
2022/08/02 00:08:47;;;;;;;;;;;;;;;;;;5010171;28;19916;-42
2022/08/02 00:11:13;;;;;;;;;;;;;;;;;;5009890;28;19952;-41
2022/08/02 00:13:39;;;;;;;;;;;;;;;;;;4996191;28;19995;-41
2022/08/02 00:16:05;;;;;;;;;;;;;;;;;;4990097;28;19968;-42
2022/08/02 00:18:31;;;;;;;;;;;;;;;;;;4989877;28;19910;-42
2022/08/02 00:20:57;;;;;;;;;;;;;;;;;;4989858;28;19914;-42
2022/08/02 00:23:23;;;;;;;;;;;;;;;;;;4989806;28;19956;-41
2022/08/02 00:25:49;;;;;;;;;;;;;;;;;;4990169;28;19917;-41
2022/08/02 00:28:15;;;;;;;;;;;;;;;;;;5001162;28;19921;-41
2022/08/02 00:30:41;;;;;;;;;;;;;;;;;;5009892;28;19915;-41
2022/08/02 00:33:07;;;;;;;;;;;;;;;;;;5009654;28;20074;-42
2022/08/02 00:35:33;;;;;;;;;;;;;;;;;;5009105;28;19916;-42
2022/08/02 00:37:59;;;;;;;;;;;;;;;;;;5009363;28;19929;-42
2022/08/02 00:40:25;;;;;;;;;;;;;;;;;;5004070;28;19961;-41
2022/08/02 00:42:51;;;;;;;;;;;;;;;;;;4989626;28;19910;-41
2022/08/02 00:45:17;;;;;;;;;;;;;;;;;;4989611;28;19914;-41
2022/08/02 00:47:42;;;;;;;;;;;;;;;;;;4989379;28;19914;-40
2022/08/02 00:50:08;;;;;;;;;;;;;;;;;;4990074;28;19917;-41
2022/08/02 00:52:34;;;;;;;;;;;;;;;;;;4988861;28;19960;-41
2022/08/02 00:55:00;;;;;;;;;;;;;;;;;;4989245;28;19918;-41
2022/08/02 00:57:26;;;;;;;;;;;;;;;;;;4988994;28;19922;-41
2022/08/02 00:59:52;;;;;;;;;;;;;;;;;;4989483;28;19910;-41
2022/08/02 01:02:18;;;;;;;;;;;;;;;;;;4989319;28;19910;-41
2022/08/02 01:04:44;;;;;;;;;;;;;;;;;;4988702;28;20053;-41
2022/08/02 01:07:10;;;;;;;;;;;;;;;;;;4989836;28;19910;-41
2022/08/02 01:09:36;;;;;;;;;;;;;;;;;;4990073;28;19917;-41
2022/08/02 01:12:02;;;;;;;;;;;;;;;;;;5008334;28;19909;-41
2022/08/02 01:14:28;;;;;;;;;;;;;;;;;;4992427;28;20008;-41
2022/08/02 01:16:54;;;;;;;;;;;;;;;;;;4988930;28;19918;-41
2022/08/02 01:19:19;;;;;;;;;;;;;;;;;;4988886;28;19921;-42
2022/08/02 01:21:45;;;;;;;;;;;;;;;;;;4988898;28;19972;-41
2022/08/02 01:24:11;;;;;;;;;;;;;;;;;;4989557;28;19944;-42
2022/08/02 01:26:37;;;;;;;;;;;;;;;;;;4989268;28;19960;-42
2022/08/02 01:29:03;;;;;;;;;;;;;;;;;;4988542;28;19941;-41
2022/08/02 01:31:29;;;;;;;;;;;;;;;;;;4988651;28;19936;-42
2022/08/02 01:33:55;;;;;;;;;;;;;;;;;;4988784;28;19917;-41
2022/08/02 01:36:22;;;;;;;;;;;;;;;;;;4988705;28;19914;-41
2022/08/02 01:38:48;;;;;;;;;;;;;;;;;;4988684;28;20342;-41
2022/08/02 01:41:14;;;;;;;;;;;;;;;;;;4988701;28;20372;-41
2022/08/02 01:43:40;;;;;;;;;;;;;;;;;;4988092;28;19997;-41
2022/08/02 01:46:05;;;;;;;;;;;;;;;;;;4988695;28;19914;-42
2022/08/02 01:48:31;;;;;;;;;;;;;;;;;;4988191;28;19993;-41
2022/08/02 01:50:57;;;;;;;;;;;;;;;;;;4988875;28;19924;-42
2022/08/02 01:53:25;;;;;;;;;;;;;;;;;;4987993;28;19913;-41
2022/08/02 01:55:52;;;;;;;;;;;;;;;;;;4988399;28;19924;-41
2022/08/02 01:58:18;;;;;;;;;;;;;;;;;;4988313;28;19910;-42
2022/08/02 02:00:44;;;;;;;;;;;;;;;;;;4988148;28;19921;-41
2022/08/02 02:03:10;;;;;;;;;;;;;;;;;;4988476;28;19910;-41
2022/08/02 02:05:36;;;;;;;;;;;;;;;;;;4987378;28;19960;-41
2022/08/02 02:08:02;;;;;;;;;;;;;;;;;;4988191;28;19921;-41
2022/08/02 02:10:29;;;;;;;;;;;;;;;;;;4987897;28;20001;-41
2022/08/02 02:12:56;;;;;;;;;;;;;;;;;;4987749;28;20020;-41
2022/08/02 02:15:22;;;;;;;;;;;;;;;;;;4988035;28;20341;-41
2022/08/02 02:17:47;;;;;;;;;;;;;;;;;;4987988;28;19918;-41
2022/08/02 02:20:13;;;;;;;;;;;;;;;;;;4998040;28;19918;-41
2022/08/02 02:22:39;;;;;;;;;;;;;;;;;;5003695;28;20064;-41
2022/08/02 02:25:05;;;;;;;;;;;;;;;;;;4987522;28;19913;-42
2022/08/02 02:27:31;;;;;;;;;;;;;;;;;;4987314;28;19913;-41
2022/08/02 02:29:57;;;;;;;;;;;;;;;;;;4987789;28;19967;-41
2022/08/02 02:32:23;;;;;;;;;;;;;;;;;;4987542;28;19999;-42
2022/08/02 02:34:49;;;;;;;;;;;;;;;;;;4987681;28;19910;-41
2022/08/02 02:37:15;;;;;;;;;;;;;;;;;;4992252;28;20036;-41
2022/08/02 02:39:41;;;;;;;;;;;;;;;;;;5007879;28;19910;-41
2022/08/02 02:42:07;;;;;;;;;;;;;;;;;;5007800;28;20324;-41
2022/08/02 02:44:33;;;;;;;;;;;;;;;;;;5006894;28;19909;-42
2022/08/02 02:46:59;;;;;;;;;;;;;;;;;;5007102;28;19916;-41
2022/08/02 02:49:25;;;;;;;;;;;;;;;;;;5006834;28;20413;-41
2022/08/02 02:51:51;;;;;;;;;;;;;;;;;;5006193;28;19914;-41
2022/08/02 02:54:17;;;;;;;;;;;;;;;;;;5006888;28;19913;-42
2022/08/02 02:56:43;;;;;;;;;;;;;;;;;;5006921;28;19914;-41
2022/08/02 02:59:09;;;;;;;;;;;;;;;;;;5007678;28;19967;-41
2022/08/02 03:01:35;;;;;;;;;;;;;;;;;;4995920;28;19985;-41
2022/08/02 03:04:01;;;;;;;;;;;;;;;;;;4986767;28;19913;-41
2022/08/02 03:06:27;;;;;;;;;;;;;;;;;;4987384;28;20012;-41
2022/08/02 03:08:53;;;;;;;;;;;;;;;;;;4987224;28;19916;-41
2022/08/02 03:11:19;;;;;;;;;;;;;;;;;;4987398;28;19910;-42
2022/08/02 03:13:45;;;;;;;;;;;;;;;;;;4987321;28;19921;-41
2022/08/02 03:16:11;;;;;;;;;;;;;;;;;;4987278;28;19999;-41
2022/08/02 03:18:37;;;;;;;;;;;;;;;;;;4987201;28;19956;-41
2022/08/02 03:21:03;;;;;;;;;;;;;;;;;;4987099;28;19914;-41
2022/08/02 03:23:29;;;;;;;;;;;;;;;;;;4987056;28;19910;-41
2022/08/02 03:25:55;;;;;;;;;;;;;;;;;;4986996;28;19921;-41
2022/08/02 03:28:21;;;;;;;;;;;;;;;;;;5003906;28;19988;-41
2022/08/02 03:30:47;;;;;;;;;;;;;;;;;;5006722;28;20011;-41
2022/08/02 03:33:13;;;;;;;;;;;;;;;;;;5006308;28;19905;-40
2022/08/02 03:35:39;;;;;;;;;;;;;;;;;;5007305;28;19936;-41
2022/08/02 03:38:05;;;;;;;;;;;;;;;;;;5010054;28;19913;-41
2022/08/02 03:40:31;;;;;;;;;;;;;;;;;;5010530;28;20016;-41
2022/08/02 03:42:57;;;;;;;;;;;;;;;;;;4992979;28;19925;-41
2022/08/02 03:45:23;;;;;;;;;;;;;;;;;;4990766;28;20016;-40
2022/08/02 03:47:49;;;;;;;;;;;;;;;;;;4990580;28;19997;-41
2022/08/02 03:50:15;;;;;;;;;;;;;;;;;;4990758;28;20465;-40
2022/08/02 03:52:41;;;;;;;;;;;;;;;;;;4991132;28;19913;-41
2022/08/02 03:55:07;;;;;;;;;;;;;;;;;;4991106;28;20005;-41
2022/08/02 03:57:33;;;;;;;;;;;;;;;;;;4990408;28;20008;-41
2022/08/02 03:59:59;;;;;;;;;;;;;;;;;;4990235;28;20032;-42
2022/08/02 04:02:25;;;;;;;;;;;;;;;;;;4990410;28;19914;-41
2022/08/02 04:04:51;;;;;;;;;;;;;;;;;;4990162;28;19925;-41
2022/08/02 04:07:17;;;;;;;;;;;;;;;;;;4990400;28;19914;-41
2022/08/02 04:09:43;;;;;;;;;;;;;;;;;;4990553;28;19917;-41
2022/08/02 04:12:09;;;;;;;;;;;;;;;;;;4990676;28;19914;-40
2022/08/02 04:14:35;;;;;;;;;;;;;;;;;;4990192;28;19913;-41
2022/08/02 04:17:01;;;;;;;;;;;;;;;;;;5006243;28;20052;-41
2022/08/02 04:19:27;;;;;;;;;;;;;;;;;;5007566;28;19925;-42
2022/08/02 04:21:53;;;;;;;;;;;;;;;;;;5009491;28;19913;-41
2022/08/02 04:24:19;;;;;;;;;;;;;;;;;;5009656;28;19909;-41
2022/08/02 04:26:45;;;;;;;;;;;;;;;;;;5010066;28;20726;-41
2022/08/02 04:29:11;;;;;;;;;;;;;;;;;;5009950;28;19926;-41
2022/08/02 04:31:36;;;;;;;;;;;;;;;;;;5009380;28;19913;-42
2022/08/02 04:34:02;;;;;;;;;;;;;;;;;;4997693;28;19924;-41
2022/08/02 04:36:28;;;;;;;;;;;;;;;;;;4989657;28;19917;-41
2022/08/02 04:38:54;;;;;;;;;;;;;;;;;;4989580;28;19921;-41
2022/08/02 04:41:20;;;;;;;;;;;;;;;;;;4989716;28;19910;-41
2022/08/02 04:43:46;;;;;;;;;;;;;;;;;;4989821;28;20016;-41
2022/08/02 04:46:12;;;;;;;;;;;;;;;;;;4989623;28;20490;-41
2022/08/02 04:48:38;;;;;;;;;;;;;;;;;;4989272;28;19937;-41
2022/08/02 04:51:04;;;;;;;;;;;;;;;;;;4989179;28;19914;-41
2022/08/02 04:53:30;;;;;;;;;;;;;;;;;;4989416;28;19957;-41
2022/08/02 04:55:56;;;;;;;;;;;;;;;;;;4988926;28;19965;-41
2022/08/02 04:58:22;;;;;;;;;;;;;;;;;;4989466;28;19913;-40
2022/08/02 05:00:48;;;;;;;;;;;;;;;;;;4989442;28;20004;-41
2022/08/02 05:03:14;;;;;;;;;;;;;;;;;;4989218;28;19982;-41
2022/08/02 05:05:40;;;;;;;;;;;;;;;;;;4989681;28;19910;-41
2022/08/02 05:08:06;;;;;;;;;;;;;;;;;;4997350;28;19920;-41
2022/08/02 05:10:32;;;;;;;;;;;;;;;;;;5007682;28;20374;-41
2022/08/02 05:12:58;;;;;;;;;;;;;;;;;;4987949;28;19910;-41
2022/08/02 05:15:24;;;;;;;;;;;;;;;;;;5003242;28;19960;-42
2022/08/02 05:17:50;;;;;;;;;;;;;;;;;;4988856;28;19921;-41
2022/08/02 05:20:16;;;;;;;;;;;;;;;;;;4989612;28;19969;-41
2022/08/02 05:22:42;;;;;;;;;;;;;;;;;;4987803;28;20338;-41
2022/08/02 05:25:08;;;;;;;;;;;;;;;;;;4988619;28;20307;-42
2022/08/02 05:27:34;;;;;;;;;;;;;;;;;;4988756;28;19937;-41
2022/08/02 05:30:00;;;;;;;;;;;;;;;;;;4988567;28;19910;-41
2022/08/02 05:32:26;;;;;;;;;;;;;;;;;;4988130;28;20094;-41
2022/08/02 05:34:52;;;;;;;;;;;;;;;;;;4988507;28;19918;-41
2022/08/02 05:37:18;;;;;;;;;;;;;;;;;;4988874;28;19920;-40
2022/08/02 05:39:44;;;;;;;;;;;;;;;;;;4989003;28;19957;-40
2022/08/02 05:42:10;;;;;;;;;;;;;;;;;;4988362;28;19920;-40
2022/08/02 05:44:36;;;;;;;;;;;;;;;;;;5007190;28;19923;-40
2022/08/02 05:47:02;;;;;;;;;;;;;;;;;;4992259;28;19917;-40
2022/08/02 05:49:28;;;;;;;;;;;;;;;;;;4998574;28;19909;-40
2022/08/02 05:51:54;;;;;;;;;;;;;;;;;;5004847;28;19968;-40
2022/08/02 05:54:20;;;;;;;;;;;;;;;;;;5007368;28;20351;-40
2022/08/02 05:56:46;;;;;;;;;;;;;;;;;;5001029;28;19929;-40
2022/08/02 05:59:12;;;;;;;;;;;;;;;;;;4987172;28;19918;-40
2022/08/02 06:01:39;;;;;;;;;;;;;;;;;;4994213;28;19972;-40
2022/08/02 06:04:04;;;;;;;;;;;;;;;;;;5007346;28;19910;-40
2022/08/02 06:06:30;;;;;;;;;;;;;;;;;;5007544;28;19909;-40
2022/08/02 06:08:56;;;;;;;;;;;;;;;;;;5007133;28;19913;-40
2022/08/02 06:11:22;;;;;;;;;;;;;;;;;;4997469;28;19971;-40
2022/08/02 06:13:48;;;;;;;;;;;;;;;;;;4987995;28;19913;-40
2022/08/02 06:16:14;;;;;;;;;;;;;;;;;;4987438;28;19922;-40
2022/08/02 06:18:40;;;;;;;;;;;;;;;;;;4991137;28;19914;-40
2022/08/02 06:21:07;;;;;;;;;;;;;;;;;;5007211;28;19960;-40
2022/08/02 06:23:33;;;;;;;;;;;;;;;;;;4998857;28;19928;-40
2022/08/02 06:25:59;;;;;;;;;;;;;;;;;;4989149;28;20367;-40
2022/08/02 06:28:28;;;;;;;;;;;;;;;;;;4988917;28;19945;-40
2022/08/02 06:30:54;;;;;;;;;;;;;;;;;;5001244;28;20030;-40
2022/08/02 06:33:20;;;;;;;;;;;;;;;;;;4987688;28;20374;-40
2022/08/02 06:35:46;;;;;;;;;;;;;;;;;;4996617;28;19917;-40
2022/08/02 06:38:12;;;;;;;;;;;;;;;;;;5007075;28;19936;-40
2022/08/02 06:40:38;;;;;;;;;;;;;;;;;;5004749;28;19968;-40
2022/08/02 06:43:04;;;;;;;;;;;;;;;;;;4987338;28;19910;-40
2022/08/02 06:45:30;;;;;;;;;;;;;;;;;;5004980;28;19940;-40
2022/08/02 06:47:57;;;;;;;;;;;;;;;;;;4988535;28;19922;-40
2022/08/02 06:50:23;;;;;;;;;;;;;;;;;;5000084;28;19914;-40
2022/08/02 06:52:49;;;;;;;;;;;;;;;;;;5006395;28;19910;-40
2022/08/02 06:55:15;;;;;;;;;;;;;;;;;;5007678;28;19909;-40
2022/08/02 06:57:41;;;;;;;;;;;;;;;;;;5006742;28;19917;-40
2022/08/02 07:02:52;;;;;;;;;;;;;;;;;;4984507;28;20055;-40
2022/08/02 07:05:18;;;;;;;;;;;;;;;;;;4980146;28;20512;-40
2022/08/02 07:07:44;;;;;;;;;;;;;;;;;;4986605;28;19953;-40
2022/08/02 07:10:10;;;;;;;;;;;;;;;;;;4976327;28;20437;-40
2022/08/02 07:12:36;;;;;;;;;;;;;;;;;;4984442;28;19926;-40
2022/08/02 07:15:02;;;;;;;;;;;;;;;;;;4991345;28;19993;-40
2022/08/02 07:17:28;;;;;;;;;;;;;;;;;;5011893;28;19928;-40
2022/08/02 07:19:54;;;;;;;;;;;;;;;;;;4997130;28;20009;-40
2022/08/02 07:22:22;;;;;;;;;;;;;;;;;;4994241;28;19914;-40
2022/08/02 07:24:48;;;;;;;;;;;;;;;;;;4994648;28;19918;-40
2022/08/02 07:27:14;;;;;;;;;;;;;;;;;;5007213;28;20021;-41
2022/08/02 07:29:39;;;;;;;;;;;;;;;;;;5001152;28;19924;-41
2022/08/02 07:32:05;;;;;;;;;;;;;;;;;;4999220;28;19983;-41
2022/08/02 07:34:31;;;;;;;;;;;;;;;;;;5001225;28;19921;-41
2022/08/02 07:36:57;;;;;;;;;;;;;;;;;;5003297;28;20402;-41
2022/08/02 07:39:24;;;;;;;;;;;;;;;;;;5001799;28;20003;-42
2022/08/02 07:41:53;;;;;;;;;;;;;;;;;;5007880;28;19913;-41
2022/08/02 07:44:19;;;;;;;;;;;;;;;;;;5013003;28;19909;-41
2022/08/02 07:46:45;;;;;;;;;;;;;;;;;;5004005;28;19932;-41
2022/08/02 07:49:12;;;;;;;;;;;;;;;;;;4992723;28;19914;-41
2022/08/02 07:51:38;;;;;;;;;;;;;;;;;;4995423;28;19913;-41
2022/08/02 07:54:04;;;;;;;;;;;;;;;;;;5000155;28;19936;-41
2022/08/02 07:56:30;;;;;;;;;;;;;;;;;;5000163;28;20370;-41
2022/08/02 07:58:56;;;;;;;;;;;;;;;;;;4997825;28;19925;-41
2022/08/02 08:01:22;;;;;;;;;;;;;;;;;;4999811;28;19918;-41
2022/08/02 08:03:49;;;;;;;;;;;;;;;;;;5004392;28;20018;-41
2022/08/02 08:06:15;;;;;;;;;;;;;;;;;;5003187;28;19920;-42
2022/08/02 08:08:41;;;;;;;;;;;;;;;;;;5003947;28;19917;-41
2022/08/02 08:11:08;;;;;;;;;;;;;;;;;;5008295;28;20015;-41
2022/08/02 08:13:34;;;;;;;;;;;;;;;;;;4993926;28;19945;-43
2022/08/02 08:16:01;;;;;;;;;;;;;;;;;;5016916;28;19968;-41
2022/08/02 08:18:27;;;;;;;;;;;;;;;;;;5008174;28;19917;-42
2022/08/02 08:20:53;;;;;;;;;;;;;;;;;;5000262;28;20441;-43
2022/08/02 08:23:19;;;;;;;;;;;;;;;;;;4995036;28;20001;-41
2022/08/02 08:25:45;;;;;;;;;;;;;;;;;;5000053;28;20403;-41
2022/08/02 08:28:10;;;;;;;;;;;;;;;;;;5009086;28;19917;-41
2022/08/02 08:30:36;;;;;;;;;;;;;;;;;;5002031;28;19924;-39
2022/08/02 08:33:03;;;;;;;;;;;;;;;;;;5011436;28;19913;-41
2022/08/02 08:35:29;;;;;;;;;;;;;;;;;;5010639;28;19914;-40
2022/08/02 08:37:55;;;;;;;;;;;;;;;;;;4993746;28;20077;-41
2022/08/02 08:40:21;;;;;;;;;;;;;;;;;;5001790;28;19913;-40
2022/08/02 08:42:47;;;;;;;;;;;;;;;;;;5011837;28;19918;-40
2022/08/02 08:45:14;;;;;;;;;;;;;;;;;;5005744;28;19913;-40
2022/08/02 08:47:39;;;;;;;;;;;;;;;;;;5006285;28;19921;-41
2022/08/02 08:50:05;;;;;;;;;;;;;;;;;;4994764;28;19914;-41
2022/08/02 08:52:31;;;;;;;;;;;;;;;;;;5002961;28;19921;-40
2022/08/02 08:54:57;;;;;;;;;;;;;;;;;;4999648;28;19924;-42
2022/08/02 08:57:23;;;;;;;;;;;;;;;;;;4997535;28;20390;-40
2022/08/02 08:59:49;;;;;;;;;;;;;;;;;;5011472;28;19916;-40
2022/08/02 09:02:15;;;;;;;;;;;;;;;;;;4999525;28;19936;-41
2022/08/02 09:04:41;;;;;;;;;;;;;;;;;;4999810;28;19917;-40
2022/08/02 09:07:07;;;;;;;;;;;;;;;;;;5000679;28;19952;-41
2022/08/02 09:09:33;;;;;;;;;;;;;;;;;;5000121;28;19918;-40
2022/08/02 09:11:59;;;;;;;;;;;;;;;;;;4996152;28;19918;-41
2022/08/02 09:14:25;;;;;;;;;;;;;;;;;;5004489;28;19963;-42
2022/08/02 09:16:51;;;;;;;;;;;;;;;;;;5000928;28;19918;-42
2022/08/02 09:19:17;;;;;;;;;;;;;;;;;;5003410;28;20271;-41
2022/08/02 09:21:43;;;;;;;;;;;;;;;;;;4996249;28;19917;-42
2022/08/02 09:24:09;;;;;;;;;;;;;;;;;;4997183;28;19925;-41
2022/08/02 09:26:35;;;;;;;;;;;;;;;;;;4989446;28;19914;-41
2022/08/02 09:29:01;;;;;;;;;;;;;;;;;;4994809;28;19922;-40
2022/08/02 09:31:27;;;;;;;;;;;;;;;;;;5007117;28;19954;-41
2022/08/02 09:33:53;;;;;;;;;;;;;;;;;;4994220;28;19917;-41
2022/08/02 09:36:19;;;;;;;;;;;;;;;;;;5008204;28;19918;-41
2022/08/02 09:38:45;;;;;;;;;;;;;;;;;;5005303;28;19937;-41
2022/08/02 09:41:11;;;;;;;;;;;;;;;;;;5004733;28;20004;-40
2022/08/02 09:43:37;;;;;;;;;;;;;;;;;;5000653;28;19917;-41
2022/08/02 09:46:03;;;;;;;;;;;;;;;;;;4999040;28;19917;-42
2022/08/02 09:48:29;;;;;;;;;;;;;;;;;;5007151;28;19918;-42
2022/08/02 09:50:55;;;;;;;;;;;;;;;;;;5005245;28;19917;-40
2022/08/02 09:53:21;;;;;;;;;;;;;;;;;;5002903;28;19914;-41
2022/08/02 09:55:47;;;;;;;;;;;;;;;;;;4997530;28;19922;-41
2022/08/02 09:58:13;;;;;;;;;;;;;;;;;;5006613;28;20012;-41
2022/08/02 10:00:38;;;;;;;;;;;;;;;;;;4998344;28;19917;-40
2022/08/02 10:03:05;;;;;;;;;;;;;;;;;;5003046;28;19914;-40
2022/08/02 10:05:31;;;;;;;;;;;;;;;;;;5001764;28;19928;-41
2022/08/02 10:07:56;;;;;;;;;;;;;;;;;;5005303;28;20386;-40
2022/08/02 10:10:22;;;;;;;;;;;;;;;;;;4998428;28;19921;-41
2022/08/02 10:12:48;;;;;;;;;;;;;;;;;;5011167;28;19928;-40
2022/08/02 10:15:14;;;;;;;;;;;;;;;;;;5003869;28;20004;-41
2022/08/02 10:17:41;;;;;;;;;;;;;;;;;;4998758;28;19952;-40
2022/08/02 10:20:07;;;;;;;;;;;;;;;;;;5000770;28;19976;-42
2022/08/02 10:22:33;;;;;;;;;;;;;;;;;;5001833;28;20286;-40
2022/08/02 10:24:59;;;;;;;;;;;;;;;;;;4995878;28;20402;-40
2022/08/02 10:27:25;;;;;;;;;;;;;;;;;;4995474;28;19975;-41
2022/08/02 10:29:52;;;;;;;;;;;;;;;;;;4990913;28;19917;-41
2022/08/02 10:32:20;;;;;;;;;;;;;;;;;;4995790;28;19924;-41
2022/08/02 10:34:46;;;;;;;;;;;;;;;;;;4996180;28;19913;-42
2022/08/02 10:37:12;;;;;;;;;;;;;;;;;;4999276;28;19933;-41
2022/08/02 10:39:38;;;;;;;;;;;;;;;;;;4994582;28;19913;-41
2022/08/02 10:42:05;;;;;;;;;;;;;;;;;;4996330;28;19918;-41
2022/08/02 10:44:31;;;;;;;;;;;;;;;;;;4987841;28;19918;-41
2022/08/02 10:46:57;;;;;;;;;;;;;;;;;;4987346;28;19928;-41
2022/08/02 10:49:23;;;;;;;;;;;;;;;;;;4993928;28;19913;-42
2022/08/02 10:51:49;;;;;;;;;;;;;;;;;;4999847;28;20000;-40
2022/08/02 10:54:15;;;;;;;;;;;;;;;;;;5007453;28;19921;-41
2022/08/02 10:56:41;;;;;;;;;;;;;;;;;;4989835;28;19946;-41
2022/08/02 10:59:06;;;;;;;;;;;;;;;;;;4990861;28;19918;-42
2022/08/02 11:01:34;;;;;;;;;;;;;;;;;;4988720;28;20052;-42
2022/08/02 11:04:00;;;;;;;;;;;;;;;;;;4993103;28;20282;-41
2022/08/02 11:06:26;;;;;;;;;;;;;;;;;;4996028;28;19917;-41
2022/08/02 11:08:52;;;;;;;;;;;;;;;;;;4997571;28;19977;-42
2022/08/02 11:11:18;;;;;;;;;;;;;;;;;;4991898;28;19918;-41
2022/08/02 11:13:44;;;;;;;;;;;;;;;;;;4993029;28;19920;-41
2022/08/02 11:16:10;;;;;;;;;;;;;;;;;;4993059;28;20414;-42
2022/08/02 11:18:35;;;;;;;;;;;;;;;;;;5001641;28;19913;-42
2022/08/02 11:21:01;;;;;;;;;;;;;;;;;;4992823;28;19940;-42
2022/08/02 11:23:27;;;;;;;;;;;;;;;;;;4997414;28;19929;-42
2022/08/02 11:25:53;;;;;;;;;;;;;;;;;;4996095;28;19992;-42
2022/08/02 11:28:19;;;;;;;;;;;;;;;;;;5002320;28;19926;-42
2022/08/02 11:30:45;;;;;;;;;;;;;;;;;;4991426;28;19913;-43
2022/08/02 11:33:11;;;;;;;;;;;;;;;;;;5006203;28;19913;-42
2022/08/02 11:35:37;;;;;;;;;;;;;;;;;;5000830;28;20024;-41
2022/08/02 11:38:04;;;;;;;;;;;;;;;;;;4999928;28;19921;-41
2022/08/02 11:40:30;;;;;;;;;;;;;;;;;;5002075;28;19918;-41
2022/08/02 11:42:56;;;;;;;;;;;;;;;;;;4999762;28;19918;-43
2022/08/02 11:45:21;;;;;;;;;;;;;;;;;;4993973;28;20638;-45
2022/08/02 11:47:47;;;;;;;;;;;;;;;;;;4993882;28;19923;-43
2022/08/02 11:50:14;;;;;;;;;;;;;;;;;;5005113;28;20037;-43
2022/08/02 11:52:40;;;;;;;;;;;;;;;;;;4995249;28;19918;-44
2022/08/02 11:55:06;;;;;;;;;;;;;;;;;;4994447;28;20004;-45
2022/08/02 11:57:32;;;;;;;;;;;;;;;;;;4995860;28;19922;-46
2022/08/02 11:59:59;;;;;;;;;;;;;;;;;;4990063;28;20382;-44
2022/08/02 12:02:25;;;;;;;;;;;;;;;;;;4997940;28;19928;-44
2022/08/02 12:04:51;;;;;;;;;;;;;;;;;;4991422;28;20008;-46
2022/08/02 12:07:16;;;;;;;;;;;;;;;;;;4997073;28;20432;-45
2022/08/02 12:09:43;;;;;;;;;;;;;;;;;;4995616;28;19920;-42
2022/08/02 12:12:09;;;;;;;;;;;;;;;;;;4998493;28;20512;-43
2022/08/02 12:14:36;;;;;;;;;;;;;;;;;;4998299;28;19918;-43
2022/08/02 12:19:47;;;;;;;;;;;;;;;;;;4996025;28;20610;-45
2022/08/02 12:22:12;;;;;;;;;;;;;;;;;;4998210;28;19914;-42
2022/08/02 12:24:38;;;;;;;;;;;;;;;;;;5006828;28;20394;-46
2022/08/02 12:27:04;;;;;;;;;;;;;;;;;;4989461;28;19918;-46
2022/08/02 12:29:30;;;;;;;;;;;;;;;;;;4988538;28;20299;-42
2022/08/02 12:31:57;;;;;;;;;;;;;;;;;;4992371;28;19914;-45
2022/08/02 12:34:23;;;;;;;;;;;;;;;;;;5000489;28;19996;-43
2022/08/02 12:36:50;;;;;;;;;;;;;;;;;;4997564;28;20480;-43
2022/08/02 12:39:16;;;;;;;;;;;;;;;;;;4992726;28;19914;-42
2022/08/02 12:41:42;;;;;;;;;;;;;;;;;;4994400;28;20350;-42
2022/08/02 12:44:08;;;;;;;;;;;;;;;;;;4987241;28;19919;-44
2022/08/02 12:46:34;;;;;;;;;;;;;;;;;;4996337;28;19984;-43
2022/08/02 12:49:00;;;;;;;;;;;;;;;;;;4996515;28;19927;-42
2022/08/02 12:51:27;;;;;;;;;;;;;;;;;;4988024;28;19913;-44
2022/08/02 12:53:53;;;;;;;;;;;;;;;;;;4987950;28;19913;-45
2022/08/02 12:56:19;;;;;;;;;;;;;;;;;;5002701;28;19921;-45
2022/08/02 12:58:45;;;;;;;;;;;;;;;;;;4993477;28;19980;-43
2022/08/02 13:01:11;;;;;;;;;;;;;;;;;;4996666;28;19914;-42
2022/08/02 13:03:37;;;;;;;;;;;;;;;;;;4999985;28;19917;-44
2022/08/02 13:06:04;;;;;;;;;;;;;;;;;;4996214;28;19922;-46
2022/08/02 13:08:30;;;;;;;;;;;;;;;;;;4994816;28;19918;-46
2022/08/02 13:10:55;;;;;;;;;;;;;;;;;;4994181;28;19924;-42
2022/08/02 13:13:22;;;;;;;;;;;;;;;;;;4991763;28;19921;-42
2022/08/02 13:15:48;;;;;;;;;;;;;;;;;;4994555;28;20048;-45
2022/08/02 13:18:16;;;;;;;;;;;;;;;;;;4990037;28;20000;-45
2022/08/02 13:20:42;;;;;;;;;;;;;;;;;;4998846;28;19913;-43
2022/08/02 13:23:08;;;;;;;;;;;;;;;;;;4990748;28;19936;-44
2022/08/02 13:25:34;;;;;;;;;;;;;;;;;;4991893;28;19921;-46
2022/08/02 13:28:00;;;;;;;;;;;;;;;;;;4986437;28;20303;-44
2022/08/02 13:30:26;;;;;;;;;;;;;;;;;;5005296;28;19937;-44
2022/08/02 13:32:52;;;;;;;;;;;;;;;;;;4999258;28;19914;-45
2022/08/02 13:35:18;;;;;;;;;;;;;;;;;;4995245;28;20425;-44
2022/08/02 13:37:46;;;;;;;;;;;;;;;;;;4999844;28;19929;-43
2022/08/02 13:40:12;;;;;;;;;;;;;;;;;;4990552;28;19918;-44
2022/08/02 13:42:39;;;;;;;;;;;;;;;;;;4988209;28;19967;-45
2022/08/02 13:45:05;;;;;;;;;;;;;;;;;;4987504;28;19910;-44
2022/08/02 13:47:31;;;;;;;;;;;;;;;;;;4990303;28;20187;-43
2022/08/02 13:49:57;;;;;;;;;;;;;;;;;;5004865;28;19918;-42
2022/08/02 13:52:23;;;;;;;;;;;;;;;;;;4996657;28;20063;-43
2022/08/02 13:54:49;;;;;;;;;;;;;;;;;;4998509;28;19910;-42
2022/08/02 13:57:15;;;;;;;;;;;;;;;;;;5006899;28;20342;-45
2022/08/02 13:59:42;;;;;;;;;;;;;;;;;;4989323;28;19925;-45
2022/08/02 14:02:08;;;;;;;;;;;;;;;;;;4994333;28;20011;-43
2022/08/02 14:04:34;;;;;;;;;;;;;;;;;;4998210;28;20376;-46
2022/08/02 14:07:00;;;;;;;;;;;;;;;;;;4987223;28;19913;-43
2022/08/02 14:09:26;;;;;;;;;;;;;;;;;;4994380;28;19917;-45
2022/08/02 14:11:52;;;;;;;;;;;;;;;;;;4988874;28;20390;-45
2022/08/02 14:14:18;;;;;;;;;;;;;;;;;;4998955;28;19917;-45
2022/08/02 14:16:44;;;;;;;;;;;;;;;;;;4995718;28;19964;-46
2022/08/02 14:19:10;;;;;;;;;;;;;;;;;;4987080;28;20426;-45
2022/08/02 14:21:36;;;;;;;;;;;;;;;;;;4991052;28;20453;-43
2022/08/02 14:24:02;;;;;;;;;;;;;;;;;;4992745;28;19942;-47
2022/08/02 14:26:28;;;;;;;;;;;;;;;;;;4997129;28;19914;-43
2022/08/02 14:28:54;;;;;;;;;;;;;;;;;;4995350;28;19921;-43
2022/08/02 14:31:20;;;;;;;;;;;;;;;;;;4991524;28;20108;-43
2022/08/02 14:33:46;;;;;;;;;;;;;;;;;;5000379;28;20776;-44
2022/08/02 14:36:12;;;;;;;;;;;;;;;;;;4986906;28;19913;-46
2022/08/02 14:38:38;;;;;;;;;;;;;;;;;;4995246;28;19937;-42
2022/08/02 14:41:05;;;;;;;;;;;;;;;;;;4984984;28;20088;-46
2022/08/02 14:46:15;;;;;;;;;;;;;;;;;;5002111;28;19921;-42
2022/08/02 14:48:41;;;;;;;;;;;;;;;;;;4989392;28;19917;-42
2022/08/02 14:51:07;;;;;;;;;;;;;;;;;;4988283;28;19925;-44
2022/08/02 14:53:34;;;;;;;;;;;;;;;;;;4993796;28;19998;-41
2022/08/02 14:56:00;;;;;;;;;;;;;;;;;;4986906;28;19914;-43
2022/08/02 14:58:26;;;;;;;;;;;;;;;;;;5004775;28;19924;-42
2022/08/02 15:00:52;;;;;;;;;;;;;;;;;;5004129;28;19909;-43
2022/08/02 15:03:18;;;;;;;;;;;;;;;;;;5007140;28;20037;-42
2022/08/02 15:05:44;;;;;;;;;;;;;;;;;;5004677;28;19914;-42
2022/08/02 15:08:10;;;;;;;;;;;;;;;;;;5000887;28;19917;-43
2022/08/02 15:10:36;;;;;;;;;;;;;;;;;;5005883;28;19956;-46
2022/08/02 15:13:02;;;;;;;;;;;;;;;;;;5007186;28;19914;-42
2022/08/02 15:15:28;;;;;;;;;;;;;;;;;;5004961;28;19996;-43
2022/08/02 15:17:54;;;;;;;;;;;;;;;;;;5006035;28;20011;-45
2022/08/02 15:20:20;;;;;;;;;;;;;;;;;;5001398;28;19914;-42
2022/08/02 15:22:46;;;;;;;;;;;;;;;;;;4995642;28;19917;-42
2022/08/02 15:25:12;;;;;;;;;;;;;;;;;;5002827;28;19913;-44
2022/08/02 15:27:38;;;;;;;;;;;;;;;;;;4992674;28;19921;-43
2022/08/02 15:30:05;;;;;;;;;;;;;;;;;;4991847;28;20008;-42
2022/08/02 15:32:30;;;;;;;;;;;;;;;;;;5007128;28;20314;-44
2022/08/02 15:34:57;;;;;;;;;;;;;;;;;;5006210;28;19924;-45
2022/08/02 15:37:23;;;;;;;;;;;;;;;;;;4990215;28;20378;-43
2022/08/02 15:39:49;;;;;;;;;;;;;;;;;;4987987;28;20025;-43
2022/08/02 15:42:17;;;;;;;;;;;;;;;;;;4998036;28;19936;-42
2022/08/02 15:44:44;;;;;;;;;;;;;;;;;;5004250;28;20161;-43
2022/08/02 15:47:10;;;;;;;;;;;;;;;;;;4995505;28;19913;-43
2022/08/02 15:49:36;;;;;;;;;;;;;;;;;;4996201;28;19920;-42
2022/08/02 15:52:01;;;;;;;;;;;;;;;;;;4999585;28;19917;-43
2022/08/02 15:54:28;;;;;;;;;;;;;;;;;;5005259;28;19925;-42
2022/08/02 15:56:55;;;;;;;;;;;;;;;;;;5001074;28;19921;-43
2022/08/02 15:59:21;;;;;;;;;;;;;;;;;;4993546;28;19918;-42
2022/08/02 16:01:48;;;;;;;;;;;;;;;;;;5009172;28;19922;-42
2022/08/02 16:04:14;;;;;;;;;;;;;;;;;;5000456;28;19996;-42
2022/08/02 16:06:40;;;;;;;;;;;;;;;;;;4994297;28;20043;-43
2022/08/02 16:09:06;;;;;;;;;;;;;;;;;;5000285;28;20020;-44
2022/08/02 16:11:32;;;;;;;;;;;;;;;;;;5008178;28;20110;-43
2022/08/02 16:13:58;;;;;;;;;;;;;;;;;;5004516;28;20247;-44
2022/08/02 16:16:24;;;;;;;;;;;;;;;;;;5008401;28;19918;-43
2022/08/02 16:18:50;;;;;;;;;;;;;;;;;;5000705;28;19914;-42
2022/08/02 16:21:18;;;;;;;;;;;;;;;;;;4996729;28;20000;-44
2022/08/02 16:23:43;;;;;;;;;;;;;;;;;;5007266;28;20429;-43
2022/08/02 16:26:09;;;;;;;;;;;;;;;;;;5002163;28;19918;-43
2022/08/02 16:28:35;;;;;;;;;;;;;;;;;;5003597;28;19917;-44
2022/08/02 16:31:01;;;;;;;;;;;;;;;;;;4991772;28;20366;-43
2022/08/02 16:33:27;;;;;;;;;;;;;;;;;;4996094;28;20401;-42
2022/08/02 16:35:53;;;;;;;;;;;;;;;;;;4996994;28;19914;-43
2022/08/02 16:38:19;;;;;;;;;;;;;;;;;;5000671;28;20345;-46
2022/08/02 16:40:45;;;;;;;;;;;;;;;;;;5003818;28;20282;-44
2022/08/02 16:43:12;;;;;;;;;;;;;;;;;;4998340;28;20168;-45
2022/08/02 16:45:37;;;;;;;;;;;;;;;;;;5001636;28;19921;-44